sensor_id;sensor_type;location;lat;lon;timestamp;P1;durP1;ratioP1;P2;durP2;ratioP2
7001;SDS011;3541;53.230;10.518;2023-02-01T00:02:14;19.83;;;3.80;;
7001;SDS011;3541;53.230;10.518;2023-02-01T00:04:41;19.90;;;4.60;;
7001;SDS011;3541;53.230;10.518;2023-02-01T00:07:07;18.03;;;4.17;;
7001;SDS011;3541;53.230;10.518;2023-02-01T00:09:34;18.80;;;4.50;;
7001;SDS011;3541;53.230;10.518;2023-02-01T00:12:01;18.83;;;4.00;;
7001;SDS011;3541;53.230;10.518;2023-02-01T00:14:28;21.40;;;3.77;;
7001;SDS011;3541;53.230;10.518;2023-02-01T00:16:55;20.80;;;4.20;;
7001;SDS011;3541;53.230;10.518;2023-02-01T00:19:23;18.13;;;3.93;;
7001;SDS011;3541;53.230;10.518;2023-02-01T00:21:49;17.83;;;4.17;;
7001;SDS011;3541;53.230;10.518;2023-02-01T00:24:16;17.50;;;4.30;;
7001;SDS011;3541;53.230;10.518;2023-02-01T00:26:43;18.93;;;4.00;;
7001;SDS011;3541;53.230;10.518;2023-02-01T00:29:12;13.80;;;3.80;;
7001;SDS011;3541;53.230;10.518;2023-02-01T00:31:41;15.97;;;3.80;;
7001;SDS011;3541;53.230;10.518;2023-02-01T00:34:09;18.73;;;4.30;;
7001;SDS011;3541;53.230;10.518;2023-02-01T00:36:38;24.73;;;4.10;;
7001;SDS011;3541;53.230;10.518;2023-02-01T00:39:05;26.27;;;4.90;;
7001;SDS011;3541;53.230;10.518;2023-02-01T00:41:34;17.37;;;3.83;;
7001;SDS011;3541;53.230;10.518;2023-02-01T00:44:00;19.30;;;4.50;;
7001;SDS011;3541;53.230;10.518;2023-02-01T00:46:27;16.70;;;4.67;;
7001;SDS011;3541;53.230;10.518;2023-02-01T00:48:55;13.73;;;3.53;;
7001;SDS011;3541;53.230;10.518;2023-02-01T00:51:23;19.10;;;4.37;;
7001;SDS011;3541;53.230;10.518;2023-02-01T00:53:52;22.97;;;4.13;;
7001;SDS011;3541;53.230;10.518;2023-02-01T00:56:19;20.43;;;4.37;;
7001;SDS011;3541;53.230;10.518;2023-02-01T00:58:46;16.87;;;4.33;;
7001;SDS011;3541;53.230;10.518;2023-02-01T01:01:15;13.10;;;4.30;;
7001;SDS011;3541;53.230;10.518;2023-02-01T01:03:43;18.77;;;3.87;;
7001;SDS011;3541;53.230;10.518;2023-02-01T01:06:13;21.40;;;4.40;;
7001;SDS011;3541;53.230;10.518;2023-02-01T01:08:41;44.23;;;15.87;;
7001;SDS011;3541;53.230;10.518;2023-02-01T01:11:10;15.73;;;4.07;;
7001;SDS011;3541;53.230;10.518;2023-02-01T01:13:38;27.10;;;8.30;;
7001;SDS011;3541;53.230;10.518;2023-02-01T01:16:05;23.10;;;6.43;;
7001;SDS011;3541;53.230;10.518;2023-02-01T01:18:32;22.63;;;3.93;;
7001;SDS011;3541;53.230;10.518;2023-02-01T01:21:00;21.97;;;5.20;;
7001;SDS011;3541;53.230;10.518;2023-02-01T01:23:27;18.63;;;3.80;;
7001;SDS011;3541;53.230;10.518;2023-02-01T01:25:54;13.97;;;4.10;;
7001;SDS011;3541;53.230;10.518;2023-02-01T01:28:22;17.53;;;4.23;;
7001;SDS011;3541;53.230;10.518;2023-02-01T01:30:48;22.80;;;4.40;;
7001;SDS011;3541;53.230;10.518;2023-02-01T01:33:15;22.77;;;5.03;;
7001;SDS011;3541;53.230;10.518;2023-02-01T01:35:42;21.80;;;4.33;;
7001;SDS011;3541;53.230;10.518;2023-02-01T01:38:09;23.30;;;4.90;;
7001;SDS011;3541;53.230;10.518;2023-02-01T01:40:36;19.03;;;5.07;;
7001;SDS011;3541;53.230;10.518;2023-02-01T01:43:02;20.10;;;4.73;;
7001;SDS011;3541;53.230;10.518;2023-02-01T01:45:31;24.50;;;4.57;;
7001;SDS011;3541;53.230;10.518;2023-02-01T01:48:01;23.63;;;4.20;;
7001;SDS011;3541;53.230;10.518;2023-02-01T01:50:31;23.23;;;4.23;;
7001;SDS011;3541;53.230;10.518;2023-02-01T01:53:02;19.30;;;4.37;;
7001;SDS011;3541;53.230;10.518;2023-02-01T01:55:32;28.43;;;4.90;;
7001;SDS011;3541;53.230;10.518;2023-02-01T01:58:02;20.83;;;4.27;;
7001;SDS011;3541;53.230;10.518;2023-02-01T02:00:32;21.93;;;5.70;;
7001;SDS011;3541;53.230;10.518;2023-02-01T02:03:00;20.47;;;4.77;;
7001;SDS011;3541;53.230;10.518;2023-02-01T02:05:31;23.07;;;5.10;;
7001;SDS011;3541;53.230;10.518;2023-02-01T02:07:59;16.90;;;4.37;;
7001;SDS011;3541;53.230;10.518;2023-02-01T02:10:26;23.50;;;7.53;;
7001;SDS011;3541;53.230;10.518;2023-02-01T02:13:08;25.37;;;4.70;;
7001;SDS011;3541;53.230;10.518;2023-02-01T02:15:36;24.57;;;5.57;;
7001;SDS011;3541;53.230;10.518;2023-02-01T02:18:08;20.60;;;4.47;;
7001;SDS011;3541;53.230;10.518;2023-02-01T02:21:01;21.00;;;4.30;;
7001;SDS011;3541;53.230;10.518;2023-02-01T02:26:56;21.17;;;4.80;;
7001;SDS011;3541;53.230;10.518;2023-02-01T02:29:39;21.10;;;4.63;;
7001;SDS011;3541;53.230;10.518;2023-02-01T02:35:28;24.07;;;4.77;;
7001;SDS011;3541;53.230;10.518;2023-02-01T02:38:01;22.90;;;4.57;;
7001;SDS011;3541;53.230;10.518;2023-02-01T02:40:35;25.40;;;4.80;;
7001;SDS011;3541;53.230;10.518;2023-02-01T02:43:10;23.27;;;4.77;;
7001;SDS011;3541;53.230;10.518;2023-02-01T02:46:03;18.30;;;3.97;;
7001;SDS011;3541;53.230;10.518;2023-02-01T02:48:54;27.40;;;5.67;;
7001;SDS011;3541;53.230;10.518;2023-02-01T02:51:27;35.27;;;8.57;;
7001;SDS011;3541;53.230;10.518;2023-02-01T02:54:17;20.20;;;4.70;;
7001;SDS011;3541;53.230;10.518;2023-02-01T02:57:05;21.40;;;4.97;;
7001;SDS011;3541;53.230;10.518;2023-02-01T02:59:53;22.63;;;4.83;;
7001;SDS011;3541;53.230;10.518;2023-02-01T03:02:40;27.40;;;5.33;;
7001;SDS011;3541;53.230;10.518;2023-02-01T03:05:25;25.23;;;5.33;;
7001;SDS011;3541;53.230;10.518;2023-02-01T03:08:03;16.83;;;5.10;;
7001;SDS011;3541;53.230;10.518;2023-02-01T03:10:37;16.27;;;4.37;;
7001;SDS011;3541;53.230;10.518;2023-02-01T03:13:13;23.03;;;4.80;;
7001;SDS011;3541;53.230;10.518;2023-02-01T03:15:48;24.20;;;4.47;;
7001;SDS011;3541;53.230;10.518;2023-02-01T03:18:22;18.63;;;4.80;;
7001;SDS011;3541;53.230;10.518;2023-02-01T03:20:55;19.60;;;4.97;;
7001;SDS011;3541;53.230;10.518;2023-02-01T03:23:26;15.07;;;4.40;;
7001;SDS011;3541;53.230;10.518;2023-02-01T03:25:56;22.23;;;5.17;;
7001;SDS011;3541;53.230;10.518;2023-02-01T03:28:25;22.10;;;4.70;;
7001;SDS011;3541;53.230;10.518;2023-02-01T03:30:55;24.47;;;5.07;;
7001;SDS011;3541;53.230;10.518;2023-02-01T03:33:23;21.87;;;4.30;;
7001;SDS011;3541;53.230;10.518;2023-02-01T03:35:55;15.80;;;4.50;;
7001;SDS011;3541;53.230;10.518;2023-02-01T03:38:29;24.30;;;4.97;;
7001;SDS011;3541;53.230;10.518;2023-02-01T03:41:00;15.20;;;4.10;;
7001;SDS011;3541;53.230;10.518;2023-02-01T03:43:34;14.33;;;3.57;;
7001;SDS011;3541;53.230;10.518;2023-02-01T03:46:10;17.63;;;3.90;;
7001;SDS011;3541;53.230;10.518;2023-02-01T03:48:41;13.57;;;3.37;;
7001;SDS011;3541;53.230;10.518;2023-02-01T03:51:09;17.47;;;3.70;;
7001;SDS011;3541;53.230;10.518;2023-02-01T03:53:38;12.77;;;3.37;;
7001;SDS011;3541;53.230;10.518;2023-02-01T03:56:07;12.30;;;3.63;;
7001;SDS011;3541;53.230;10.518;2023-02-01T03:58:36;17.97;;;4.33;;
7001;SDS011;3541;53.230;10.518;2023-02-01T04:01:03;22.80;;;4.40;;
7001;SDS011;3541;53.230;10.518;2023-02-01T04:03:30;16.70;;;4.10;;
7001;SDS011;3541;53.230;10.518;2023-02-01T04:05:57;11.43;;;3.00;;
7001;SDS011;3541;53.230;10.518;2023-02-01T04:08:23;7.63;;;2.30;;
7001;SDS011;3541;53.230;10.518;2023-02-01T04:10:51;7.73;;;2.27;;
7001;SDS011;3541;53.230;10.518;2023-02-01T04:13:18;8.07;;;2.40;;
7001;SDS011;3541;53.230;10.518;2023-02-01T04:15:46;8.53;;;2.20;;
7001;SDS011;3541;53.230;10.518;2023-02-01T04:18:14;5.93;;;1.63;;
7001;SDS011;3541;53.230;10.518;2023-02-01T04:20:41;7.57;;;1.97;;
7001;SDS011;3541;53.230;10.518;2023-02-01T04:23:08;3.60;;;1.43;;
7001;SDS011;3541;53.230;10.518;2023-02-01T04:25:35;3.77;;;1.63;;
7001;SDS011;3541;53.230;10.518;2023-02-01T04:28:03;5.77;;;1.40;;
7001;SDS011;3541;53.230;10.518;2023-02-01T04:30:29;8.13;;;1.90;;
7001;SDS011;3541;53.230;10.518;2023-02-01T04:32:56;4.03;;;1.57;;
7001;SDS011;3541;53.230;10.518;2023-02-01T04:35:23;2.83;;;1.63;;
7001;SDS011;3541;53.230;10.518;2023-02-01T04:37:49;3.97;;;1.33;;
7001;SDS011;3541;53.230;10.518;2023-02-01T04:40:16;4.97;;;1.63;;
7001;SDS011;3541;53.230;10.518;2023-02-01T04:42:43;3.17;;;1.20;;
7001;SDS011;3541;53.230;10.518;2023-02-01T04:45:11;4.07;;;1.43;;
7001;SDS011;3541;53.230;10.518;2023-02-01T04:47:38;5.43;;;1.43;;
7001;SDS011;3541;53.230;10.518;2023-02-01T04:50:05;4.50;;;1.30;;
7001;SDS011;3541;53.230;10.518;2023-02-01T04:52:35;1.53;;;1.27;;
7001;SDS011;3541;53.230;10.518;2023-02-01T04:55:02;7.33;;;2.00;;
7001;SDS011;3541;53.230;10.518;2023-02-01T04:57:29;5.80;;;1.83;;
7001;SDS011;3541;53.230;10.518;2023-02-01T04:59:55;2.90;;;1.57;;
7001;SDS011;3541;53.230;10.518;2023-02-01T05:02:23;4.37;;;1.57;;
7001;SDS011;3541;53.230;10.518;2023-02-01T05:04:50;3.83;;;1.70;;
7001;SDS011;3541;53.230;10.518;2023-02-01T05:07:17;5.87;;;2.07;;
7001;SDS011;3541;53.230;10.518;2023-02-01T05:09:43;9.00;;;3.37;;
7001;SDS011;3541;53.230;10.518;2023-02-01T05:12:10;4.83;;;1.50;;
7001;SDS011;3541;53.230;10.518;2023-02-01T05:14:55;6.13;;;1.80;;
7001;SDS011;3541;53.230;10.518;2023-02-01T05:17:23;5.00;;;1.73;;
7001;SDS011;3541;53.230;10.518;2023-02-01T05:19:50;5.73;;;1.53;;
7001;SDS011;3541;53.230;10.518;2023-02-01T05:22:17;5.27;;;1.83;;
7001;SDS011;3541;53.230;10.518;2023-02-01T05:24:44;3.63;;;1.50;;
7001;SDS011;3541;53.230;10.518;2023-02-01T05:27:10;4.87;;;1.53;;
7001;SDS011;3541;53.230;10.518;2023-02-01T05:29:37;4.27;;;1.80;;
7001;SDS011;3541;53.230;10.518;2023-02-01T05:32:04;4.73;;;1.60;;
7001;SDS011;3541;53.230;10.518;2023-02-01T05:34:32;4.03;;;1.43;;
7001;SDS011;3541;53.230;10.518;2023-02-01T05:36:58;2.77;;;1.67;;
7001;SDS011;3541;53.230;10.518;2023-02-01T05:39:25;4.00;;;1.50;;
7001;SDS011;3541;53.230;10.518;2023-02-01T05:41:51;5.23;;;1.60;;
7001;SDS011;3541;53.230;10.518;2023-02-01T05:44:18;2.73;;;1.20;;
7001;SDS011;3541;53.230;10.518;2023-02-01T05:46:45;1.67;;;1.40;;
7001;SDS011;3541;53.230;10.518;2023-02-01T05:49:11;4.10;;;1.53;;
7001;SDS011;3541;53.230;10.518;2023-02-01T05:51:39;4.60;;;1.30;;
7001;SDS011;3541;53.230;10.518;2023-02-01T05:54:06;4.07;;;1.47;;
7001;SDS011;3541;53.230;10.518;2023-02-01T05:56:34;2.27;;;1.50;;
7001;SDS011;3541;53.230;10.518;2023-02-01T05:59:00;3.30;;;1.33;;
7001;SDS011;3541;53.230;10.518;2023-02-01T06:01:27;1.73;;;1.10;;
7001;SDS011;3541;53.230;10.518;2023-02-01T06:03:53;1.60;;;1.20;;
7001;SDS011;3541;53.230;10.518;2023-02-01T06:06:20;3.30;;;1.33;;
7001;SDS011;3541;53.230;10.518;2023-02-01T06:08:48;2.23;;;1.30;;
7001;SDS011;3541;53.230;10.518;2023-02-01T06:11:14;1.93;;;1.10;;
7001;SDS011;3541;53.230;10.518;2023-02-01T06:13:41;2.37;;;1.23;;
7001;SDS011;3541;53.230;10.518;2023-02-01T06:16:07;2.63;;;1.13;;
7001;SDS011;3541;53.230;10.518;2023-02-01T06:18:34;1.77;;;1.13;;
7001;SDS011;3541;53.230;10.518;2023-02-01T06:21:01;3.40;;;1.30;;
7001;SDS011;3541;53.230;10.518;2023-02-01T06:23:29;2.87;;;1.20;;
7001;SDS011;3541;53.230;10.518;2023-02-01T06:26:01;1.10;;;1.00;;
7001;SDS011;3541;53.230;10.518;2023-02-01T06:28:29;1.43;;;1.30;;
7001;SDS011;3541;53.230;10.518;2023-02-01T06:30:56;2.20;;;1.70;;
7001;SDS011;3541;53.230;10.518;2023-02-01T06:33:23;1.93;;;1.17;;
7001;SDS011;3541;53.230;10.518;2023-02-01T06:35:56;1.20;;;1.03;;
7001;SDS011;3541;53.230;10.518;2023-02-01T06:38:23;1.73;;;1.20;;
7001;SDS011;3541;53.230;10.518;2023-02-01T06:40:51;1.37;;;1.10;;
7001;SDS011;3541;53.230;10.518;2023-02-01T06:43:20;2.40;;;1.10;;
7001;SDS011;3541;53.230;10.518;2023-02-01T06:45:47;1.07;;;1.00;;
7001;SDS011;3541;53.230;10.518;2023-02-01T06:48:14;2.83;;;1.10;;
7001;SDS011;3541;53.230;10.518;2023-02-01T06:50:40;1.37;;;1.20;;
7001;SDS011;3541;53.230;10.518;2023-02-01T06:53:07;1.43;;;1.20;;
7001;SDS011;3541;53.230;10.518;2023-02-01T06:55:33;2.57;;;1.20;;
7001;SDS011;3541;53.230;10.518;2023-02-01T06:58:00;1.83;;;1.27;;
7001;SDS011;3541;53.230;10.518;2023-02-01T07:00:28;1.47;;;1.17;;
7001;SDS011;3541;53.230;10.518;2023-02-01T07:02:56;1.40;;;1.10;;
7001;SDS011;3541;53.230;10.518;2023-02-01T07:05:24;3.53;;;1.20;;
7001;SDS011;3541;53.230;10.518;2023-02-01T07:07:50;1.77;;;1.20;;
7001;SDS011;3541;53.230;10.518;2023-02-01T07:10:17;1.93;;;1.13;;
7001;SDS011;3541;53.230;10.518;2023-02-01T07:12:44;1.90;;;1.00;;
7001;SDS011;3541;53.230;10.518;2023-02-01T07:15:10;2.20;;;1.20;;
7001;SDS011;3541;53.230;10.518;2023-02-01T07:17:38;2.33;;;1.30;;
7001;SDS011;3541;53.230;10.518;2023-02-01T07:20:05;3.40;;;1.50;;
7001;SDS011;3541;53.230;10.518;2023-02-01T07:22:33;2.20;;;1.10;;
7001;SDS011;3541;53.230;10.518;2023-02-01T07:25:00;2.93;;;1.10;;
7001;SDS011;3541;53.230;10.518;2023-02-01T07:27:26;1.37;;;1.20;;
7001;SDS011;3541;53.230;10.518;2023-02-01T07:29:53;1.57;;;1.20;;
7001;SDS011;3541;53.230;10.518;2023-02-01T07:32:20;3.90;;;1.23;;
7001;SDS011;3541;53.230;10.518;2023-02-01T07:34:48;3.57;;;1.63;;
7001;SDS011;3541;53.230;10.518;2023-02-01T07:37:14;2.33;;;1.10;;
7001;SDS011;3541;53.230;10.518;2023-02-01T07:39:41;5.50;;;2.00;;
7001;SDS011;3541;53.230;10.518;2023-02-01T07:42:08;4.33;;;1.53;;
7001;SDS011;3541;53.230;10.518;2023-02-01T07:44:34;5.90;;;1.50;;
7001;SDS011;3541;53.230;10.518;2023-02-01T07:47:01;3.73;;;1.60;;
7001;SDS011;3541;53.230;10.518;2023-02-01T07:49:28;4.83;;;1.70;;
7001;SDS011;3541;53.230;10.518;2023-02-01T07:51:56;10.17;;;2.60;;
7001;SDS011;3541;53.230;10.518;2023-02-01T07:54:23;6.23;;;2.00;;
7001;SDS011;3541;53.230;10.518;2023-02-01T07:56:49;5.90;;;2.00;;
7001;SDS011;3541;53.230;10.518;2023-02-01T07:59:16;7.40;;;2.40;;
7001;SDS011;3541;53.230;10.518;2023-02-01T08:01:42;8.83;;;2.30;;
7001;SDS011;3541;53.230;10.518;2023-02-01T08:04:09;9.30;;;2.60;;
7001;SDS011;3541;53.230;10.518;2023-02-01T08:06:37;13.93;;;3.50;;
7001;SDS011;3541;53.230;10.518;2023-02-01T08:09:06;12.50;;;2.80;;
7001;SDS011;3541;53.230;10.518;2023-02-01T08:11:35;12.27;;;3.07;;
7001;SDS011;3541;53.230;10.518;2023-02-01T08:14:02;15.67;;;3.07;;
7001;SDS011;3541;53.230;10.518;2023-02-01T08:16:29;13.60;;;3.03;;
7001;SDS011;3541;53.230;10.518;2023-02-01T08:18:56;14.73;;;3.43;;
7001;SDS011;3541;53.230;10.518;2023-02-01T08:21:24;13.60;;;3.77;;
7001;SDS011;3541;53.230;10.518;2023-02-01T08:24:01;10.77;;;2.97;;
7001;SDS011;3541;53.230;10.518;2023-02-01T08:26:30;13.80;;;3.37;;
7001;SDS011;3541;53.230;10.518;2023-02-01T08:28:57;20.17;;;3.17;;
7001;SDS011;3541;53.230;10.518;2023-02-01T08:31:26;15.67;;;3.93;;
7001;SDS011;3541;53.230;10.518;2023-02-01T08:33:54;10.87;;;3.33;;
7001;SDS011;3541;53.230;10.518;2023-02-01T08:36:22;17.53;;;3.27;;
7001;SDS011;3541;53.230;10.518;2023-02-01T08:38:49;12.67;;;3.20;;
7001;SDS011;3541;53.230;10.518;2023-02-01T08:41:17;11.13;;;3.40;;
7001;SDS011;3541;53.230;10.518;2023-02-01T08:43:46;13.37;;;2.77;;
7001;SDS011;3541;53.230;10.518;2023-02-01T08:46:13;12.77;;;3.47;;
7001;SDS011;3541;53.230;10.518;2023-02-01T08:48:41;20.37;;;4.20;;
7001;SDS011;3541;53.230;10.518;2023-02-01T08:51:08;17.70;;;3.30;;
7001;SDS011;3541;53.230;10.518;2023-02-01T08:53:37;13.17;;;3.17;;
7001;SDS011;3541;53.230;10.518;2023-02-01T08:56:06;19.20;;;3.83;;
7001;SDS011;3541;53.230;10.518;2023-02-01T08:58:33;19.10;;;4.30;;
7001;SDS011;3541;53.230;10.518;2023-02-01T09:01:03;16.37;;;3.40;;
7001;SDS011;3541;53.230;10.518;2023-02-01T09:03:30;14.53;;;3.10;;
7001;SDS011;3541;53.230;10.518;2023-02-01T09:05:59;20.33;;;3.90;;
7001;SDS011;3541;53.230;10.518;2023-02-01T09:08:26;15.27;;;3.40;;
7001;SDS011;3541;53.230;10.518;2023-02-01T09:10:53;14.27;;;4.17;;
7001;SDS011;3541;53.230;10.518;2023-02-01T09:13:19;16.33;;;3.87;;
7001;SDS011;3541;53.230;10.518;2023-02-01T09:15:47;10.77;;;3.97;;
7001;SDS011;3541;53.230;10.518;2023-02-01T09:18:18;19.80;;;3.53;;
7001;SDS011;3541;53.230;10.518;2023-02-01T09:20:44;13.60;;;3.20;;
7001;SDS011;3541;53.230;10.518;2023-02-01T09:23:11;16.37;;;3.87;;
7001;SDS011;3541;53.230;10.518;2023-02-01T09:25:38;9.53;;;3.07;;
7001;SDS011;3541;53.230;10.518;2023-02-01T09:28:04;13.67;;;3.10;;
7001;SDS011;3541;53.230;10.518;2023-02-01T09:30:34;20.30;;;3.67;;
7001;SDS011;3541;53.230;10.518;2023-02-01T09:33:00;19.17;;;4.37;;
7001;SDS011;3541;53.230;10.518;2023-02-01T09:35:28;15.90;;;3.73;;
7001;SDS011;3541;53.230;10.518;2023-02-01T09:37:55;19.33;;;3.87;;
7001;SDS011;3541;53.230;10.518;2023-02-01T09:40:22;16.70;;;3.50;;
7001;SDS011;3541;53.230;10.518;2023-02-01T09:42:53;22.00;;;4.27;;
7001;SDS011;3541;53.230;10.518;2023-02-01T09:45:35;16.07;;;4.13;;
7001;SDS011;3541;53.230;10.518;2023-02-01T09:48:11;15.60;;;3.47;;
7001;SDS011;3541;53.230;10.518;2023-02-01T09:50:41;18.10;;;3.17;;
7001;SDS011;3541;53.230;10.518;2023-02-01T09:53:15;22.17;;;4.40;;
7001;SDS011;3541;53.230;10.518;2023-02-01T09:55:48;19.43;;;3.67;;
7001;SDS011;3541;53.230;10.518;2023-02-01T09:58:17;11.37;;;3.43;;
7001;SDS011;3541;53.230;10.518;2023-02-01T10:00:50;17.93;;;4.73;;
7001;SDS011;3541;53.230;10.518;2023-02-01T10:03:18;16.30;;;3.97;;
7001;SDS011;3541;53.230;10.518;2023-02-01T10:08:51;12.97;;;3.77;;
7001;SDS011;3541;53.230;10.518;2023-02-01T10:11:32;18.47;;;3.90;;
7001;SDS011;3541;53.230;10.518;2023-02-01T10:14:16;17.90;;;3.50;;
7001;SDS011;3541;53.230;10.518;2023-02-01T10:17:01;13.80;;;3.90;;
7001;SDS011;3541;53.230;10.518;2023-02-01T10:19:39;20.47;;;4.23;;
7001;SDS011;3541;53.230;10.518;2023-02-01T10:22:16;18.43;;;3.23;;
7001;SDS011;3541;53.230;10.518;2023-02-01T10:24:49;15.60;;;3.27;;
7001;SDS011;3541;53.230;10.518;2023-02-01T10:27:24;15.10;;;3.50;;
7001;SDS011;3541;53.230;10.518;2023-02-01T10:29:56;18.17;;;4.00;;
7001;SDS011;3541;53.230;10.518;2023-02-01T10:32:28;16.80;;;3.57;;
7001;SDS011;3541;53.230;10.518;2023-02-01T10:34:57;19.03;;;3.93;;
7001;SDS011;3541;53.230;10.518;2023-02-01T10:37:28;14.57;;;4.07;;
7001;SDS011;3541;53.230;10.518;2023-02-01T10:39:57;15.67;;;2.93;;
7001;SDS011;3541;53.230;10.518;2023-02-01T10:42:27;14.30;;;3.97;;
7001;SDS011;3541;53.230;10.518;2023-02-01T10:44:55;15.00;;;3.63;;
7001;SDS011;3541;53.230;10.518;2023-02-01T10:47:24;19.60;;;3.57;;
7001;SDS011;3541;53.230;10.518;2023-02-01T10:49:52;18.60;;;4.00;;
7001;SDS011;3541;53.230;10.518;2023-02-01T10:52:29;17.40;;;4.57;;
7001;SDS011;3541;53.230;10.518;2023-02-01T10:57:55;15.13;;;3.73;;
7001;SDS011;3541;53.230;10.518;2023-02-01T11:00:23;14.73;;;2.97;;
7001;SDS011;3541;53.230;10.518;2023-02-01T11:02:50;12.97;;;3.57;;
7001;SDS011;3541;53.230;10.518;2023-02-01T11:05:17;16.27;;;3.90;;
7001;SDS011;3541;53.230;10.518;2023-02-01T11:07:48;15.77;;;3.63;;
7001;SDS011;3541;53.230;10.518;2023-02-01T11:13:02;16.67;;;3.83;;
7001;SDS011;3541;53.230;10.518;2023-02-01T11:15:30;14.13;;;3.97;;
7001;SDS011;3541;53.230;10.518;2023-02-01T11:17:56;18.50;;;5.40;;
7001;SDS011;3541;53.230;10.518;2023-02-01T11:20:41;18.30;;;4.10;;
7001;SDS011;3541;53.230;10.518;2023-02-01T11:23:13;17.47;;;3.77;;
7001;SDS011;3541;53.230;10.518;2023-02-01T11:25:47;12.63;;;3.17;;
7001;SDS011;3541;53.230;10.518;2023-02-01T11:28:15;15.07;;;3.77;;
7001;SDS011;3541;53.230;10.518;2023-02-01T11:30:43;15.03;;;2.93;;
7001;SDS011;3541;53.230;10.518;2023-02-01T11:33:12;12.47;;;3.20;;
7001;SDS011;3541;53.230;10.518;2023-02-01T11:35:41;16.90;;;3.80;;
7001;SDS011;3541;53.230;10.518;2023-02-01T11:38:18;14.00;;;3.47;;
7001;SDS011;3541;53.230;10.518;2023-02-01T11:40:47;17.43;;;4.03;;
7001;SDS011;3541;53.230;10.518;2023-02-01T11:43:15;11.80;;;3.17;;
7001;SDS011;3541;53.230;10.518;2023-02-01T11:45:55;9.53;;;3.40;;
7001;SDS011;3541;53.230;10.518;2023-02-01T11:48:23;12.63;;;2.83;;
7001;SDS011;3541;53.230;10.518;2023-02-01T11:50:53;14.13;;;4.03;;
7001;SDS011;3541;53.230;10.518;2023-02-01T11:53:38;14.83;;;3.40;;
7001;SDS011;3541;53.230;10.518;2023-02-01T11:56:17;16.63;;;4.63;;
7001;SDS011;3541;53.230;10.518;2023-02-01T11:58:56;16.87;;;3.60;;
7001;SDS011;3541;53.230;10.518;2023-02-01T12:01:35;12.80;;;2.77;;
7001;SDS011;3541;53.230;10.518;2023-02-01T12:07:16;14.10;;;3.30;;
7001;SDS011;3541;53.230;10.518;2023-02-01T12:09:50;10.97;;;3.70;;
7001;SDS011;3541;53.230;10.518;2023-02-01T12:12:30;11.40;;;3.27;;
7001;SDS011;3541;53.230;10.518;2023-02-01T12:15:12;13.00;;;3.97;;
7001;SDS011;3541;53.230;10.518;2023-02-01T12:17:55;13.80;;;3.20;;
7001;SDS011;3541;53.230;10.518;2023-02-01T12:20:55;8.40;;;2.60;;
7001;SDS011;3541;53.230;10.518;2023-02-01T12:23:33;8.53;;;2.80;;
7001;SDS011;3541;53.230;10.518;2023-02-01T12:26:21;12.80;;;3.20;;
7001;SDS011;3541;53.230;10.518;2023-02-01T12:29:05;11.23;;;2.77;;
7001;SDS011;3541;53.230;10.518;2023-02-01T12:31:44;11.07;;;2.60;;
7001;SDS011;3541;53.230;10.518;2023-02-01T12:34:26;8.90;;;2.27;;
7001;SDS011;3541;53.230;10.518;2023-02-01T12:37:11;6.03;;;2.10;;
7001;SDS011;3541;53.230;10.518;2023-02-01T12:39:47;2.43;;;1.37;;
7001;SDS011;3541;53.230;10.518;2023-02-01T12:42:24;3.93;;;1.70;;
7001;SDS011;3541;53.230;10.518;2023-02-01T12:44:56;3.13;;;1.53;;
7001;SDS011;3541;53.230;10.518;2023-02-01T12:47:29;3.37;;;1.60;;
7001;SDS011;3541;53.230;10.518;2023-02-01T12:50:00;5.30;;;1.60;;
7001;SDS011;3541;53.230;10.518;2023-02-01T12:52:32;3.60;;;1.43;;
7001;SDS011;3541;53.230;10.518;2023-02-01T12:55:03;4.00;;;1.30;;
7001;SDS011;3541;53.230;10.518;2023-02-01T12:57:37;3.63;;;1.40;;
7001;SDS011;3541;53.230;10.518;2023-02-01T13:00:13;3.67;;;1.60;;
7001;SDS011;3541;53.230;10.518;2023-02-01T13:02:49;3.63;;;1.30;;
7001;SDS011;3541;53.230;10.518;2023-02-01T13:05:21;2.83;;;1.40;;
7001;SDS011;3541;53.230;10.518;2023-02-01T13:07:51;3.00;;;1.67;;
7001;SDS011;3541;53.230;10.518;2023-02-01T13:10:24;3.37;;;1.40;;
7001;SDS011;3541;53.230;10.518;2023-02-01T13:13:00;24.97;;;15.73;;
7001;SDS011;3541;53.230;10.518;2023-02-01T13:15:36;51.00;;;25.67;;
7001;SDS011;3541;53.230;10.518;2023-02-01T13:18:06;1.90;;;1.60;;
7001;SDS011;3541;53.230;10.518;2023-02-01T13:20:45;2.60;;;1.40;;
7001;SDS011;3541;53.230;10.518;2023-02-01T13:23:18;1.20;;;1.13;;
7001;SDS011;3541;53.230;10.518;2023-02-01T13:25:51;2.90;;;1.20;;
7001;SDS011;3541;53.230;10.518;2023-02-01T13:28:22;2.30;;;1.73;;
7001;SDS011;3541;53.230;10.518;2023-02-01T13:31:14;1.33;;;1.20;;
7001;SDS011;3541;53.230;10.518;2023-02-01T13:33:57;1.30;;;1.20;;
7001;SDS011;3541;53.230;10.518;2023-02-01T13:36:52;8.40;;;5.40;;
7001;SDS011;3541;53.230;10.518;2023-02-01T13:39:31;14.03;;;8.73;;
7001;SDS011;3541;53.230;10.518;2023-02-01T13:42:13;1.20;;;1.10;;
7001;SDS011;3541;53.230;10.518;2023-02-01T13:44:45;1.63;;;1.53;;
7001;SDS011;3541;53.230;10.518;2023-02-01T13:47:18;2.80;;;2.00;;
7001;SDS011;3541;53.230;10.518;2023-02-01T13:49:49;1.97;;;1.30;;
7001;SDS011;3541;53.230;10.518;2023-02-01T13:52:23;2.07;;;1.77;;
7001;SDS011;3541;53.230;10.518;2023-02-01T13:55:01;1.63;;;1.53;;
7001;SDS011;3541;53.230;10.518;2023-02-01T13:57:39;1.83;;;1.60;;
7001;SDS011;3541;53.230;10.518;2023-02-01T14:00:22;1.20;;;1.10;;
7001;SDS011;3541;53.230;10.518;2023-02-01T14:08:37;1.00;;;0.90;;
7001;SDS011;3541;53.230;10.518;2023-02-01T14:11:06;1.07;;;0.80;;
7001;SDS011;3541;53.230;10.518;2023-02-01T14:13:54;4.47;;;3.13;;
7001;SDS011;3541;53.230;10.518;2023-02-01T14:16:20;7.33;;;3.70;;
7001;SDS011;3541;53.230;10.518;2023-02-01T14:19:00;10.87;;;6.33;;
7001;SDS011;3541;53.230;10.518;2023-02-01T14:21:29;1.20;;;1.10;;
7001;SDS011;3541;53.230;10.518;2023-02-01T14:23:58;1.93;;;1.80;;
7001;SDS011;3541;53.230;10.518;2023-02-01T14:26:27;1.17;;;1.00;;
7001;SDS011;3541;53.230;10.518;2023-02-01T14:29:21;1.00;;;1.00;;
7001;SDS011;3541;53.230;10.518;2023-02-01T14:31:53;2.20;;;1.10;;
7001;SDS011;3541;53.230;10.518;2023-02-01T14:34:30;1.10;;;0.90;;
7001;SDS011;3541;53.230;10.518;2023-02-01T14:37:03;2.43;;;1.40;;
7001;SDS011;3541;53.230;10.518;2023-02-01T14:39:33;2.93;;;1.10;;
7001;SDS011;3541;53.230;10.518;2023-02-01T14:42:04;1.27;;;1.07;;
7001;SDS011;3541;53.230;10.518;2023-02-01T14:44:43;1.97;;;1.20;;
7001;SDS011;3541;53.230;10.518;2023-02-01T14:50:00;5.73;;;1.27;;
7001;SDS011;3541;53.230;10.518;2023-02-01T14:52:49;3.37;;;1.70;;
7001;SDS011;3541;53.230;10.518;2023-02-01T14:55:31;3.93;;;1.73;;
7001;SDS011;3541;53.230;10.518;2023-02-01T14:58:01;3.70;;;1.70;;
7001;SDS011;3541;53.230;10.518;2023-02-01T15:00:33;3.80;;;1.83;;
7001;SDS011;3541;53.230;10.518;2023-02-01T15:03:14;8.17;;;3.70;;
7001;SDS011;3541;53.230;10.518;2023-02-01T15:05:54;8.00;;;2.90;;
7001;SDS011;3541;53.230;10.518;2023-02-01T15:08:23;5.73;;;2.33;;
7001;SDS011;3541;53.230;10.518;2023-02-01T15:10:53;8.13;;;2.50;;
7001;SDS011;3541;53.230;10.518;2023-02-01T15:13:23;16.27;;;8.23;;
7001;SDS011;3541;53.230;10.518;2023-02-01T15:16:02;18.37;;;9.60;;
7001;SDS011;3541;53.230;10.518;2023-02-01T15:18:30;16.47;;;8.20;;
7001;SDS011;3541;53.230;10.518;2023-02-01T15:20:58;5.33;;;2.03;;
7001;SDS011;3541;53.230;10.518;2023-02-01T15:23:25;2.67;;;1.77;;
7001;SDS011;3541;53.230;10.518;2023-02-01T15:25:53;2.07;;;1.40;;
7001;SDS011;3541;53.230;10.518;2023-02-01T15:28:19;5.80;;;1.87;;
7001;SDS011;3541;53.230;10.518;2023-02-01T15:30:56;2.40;;;1.50;;
7001;SDS011;3541;53.230;10.518;2023-02-01T15:33:26;3.47;;;2.10;;
7001;SDS011;3541;53.230;10.518;2023-02-01T15:35:54;3.10;;;1.60;;
7001;SDS011;3541;53.230;10.518;2023-02-01T15:38:29;5.40;;;1.40;;
7001;SDS011;3541;53.230;10.518;2023-02-01T15:41:01;4.87;;;2.10;;
7001;SDS011;3541;53.230;10.518;2023-02-01T15:43:34;4.60;;;1.70;;